Aeroporto :
LOGIN :

Iscrizione | Disclaimer

   EN    FR    IT 

 










Sommario :    VFR   VFR Marginale   IFR   IFR Intensivo   IFR Molto Intensivo
Visibilità : 
Base nubi : 
>= 8 km
>= 3000ft
5 / 8 km
1000 / 3000 ft
1500m / 5 km
500 / 1000 ft
800 / 1500m
200 / 500 ft
< 800m
< 200 ft
Simboli :   Temporali  Nebbia  Neve Forte  Precipitazioni Forti  Vento > 20 kt
SIGMETs :   Varie  Temporali  Ghiacco  Turbolenza  Onda orograficha  Ceneri Vulcaniche






- Altitudine del aeroporto : 0 ft


ENOA - Oseberg A Platform

ULTIMO METAR :
  • 280750Z 20007KT 9999 FEW045 09/07 Q1035 W///S3

METARs OBSOLETI :
  • 280720Z 22007KT 9999 FEW045 09/06 Q1035 W///S3
  • 280650Z 24009KT 9999 FEW045 09/06 Q1035 W///S4
  • 280620Z 24010KT 9999 FEW045 09/06 Q1035 W///S4
  • 280550Z 23009KT 9999 SCT045 09/05 Q1035 W///S4
  • 280520Z 24010KT 9999 FEW045 09/05 Q1035 W///S4

TAF ENOA
Valido dal 28 a 06 ore il 29 a 06 ore UTC


2806/2906 25010KT 9999 FEW015 SCT040
BECMG 2808/2810 19015KT
PROB30 2900/2906 0200 FG VV002



MetMap, La meteo Aeronautica in un colpo d'occhio ! - Copyright ORBIFLY Dicembre 2007 - Disclaimer

ORBIFLY MET'MAP TEAM :

Programmazione e sviluppo : Alexandra Zaïnal
Concezione : Baudouin d'Aumeries
Aiuto per la programmazione : Marc-Olivier Méhu
Supporto tecnico e logistico : Manuel Goepfert
Aiuto per la traduzione : Arnaldo La Scala

Contatto : metmap@orbifly.com




FONTI E CREDITI :

   NOAA